sensor_id;sensor_type;location;lat;lon;timestamp;pressure;altitude;pressure_sealevel;temperature;humidity
55517;BME280;41724;51.176;-0.708;2023-06-04T00:01:00;101861.35;;;15.51;43.24
55517;BME280;41724;51.176;-0.708;2023-06-04T00:03:27;101863.79;;;15.18;43.23
55517;BME280;41724;51.176;-0.708;2023-06-04T00:05:55;101863.33;;;15.38;43.31
55517;BME280;41724;51.176;-0.708;2023-06-04T00:08:22;101858.44;;;15.15;43.32
55517;BME280;41724;51.176;-0.708;2023-06-04T00:10:49;101857.10;;;15.12;43.19
55517;BME280;41724;51.176;-0.708;2023-06-04T00:13:17;101860.02;;;15.23;43.10
55517;BME280;41724;51.176;-0.708;2023-06-04T00:15:43;101859.55;;;15.27;42.76
55517;BME280;41724;51.176;-0.708;2023-06-04T00:18:11;101862.00;;;15.48;42.52
55517;BME280;41724;51.176;-0.708;2023-06-04T00:20:38;101864.19;;;15.29;42.48
55517;BME280;41724;51.176;-0.708;2023-06-04T00:23:05;101862.48;;;15.61;42.12
55517;BME280;41724;51.176;-0.708;2023-06-04T00:25:32;101864.98;;;15.39;42.05
55517;BME280;41724;51.176;-0.708;2023-06-04T00:27:59;101868.09;;;15.02;41.66
55517;BME280;41724;51.176;-0.708;2023-06-04T00:30:26;101867.64;;;15.01;41.28
55517;BME280;41724;51.176;-0.708;2023-06-04T00:32:53;101860.41;;;15.12;41.06
55517;BME280;41724;51.176;-0.708;2023-06-04T00:35:20;101866.28;;;15.03;41.08
55517;BME280;41724;51.176;-0.708;2023-06-04T00:37:47;101869.71;;;14.85;41.43
55517;BME280;41724;51.176;-0.708;2023-06-04T00:40:14;101871.67;;;14.95;41.77
55517;BME280;41724;51.176;-0.708;2023-06-04T00:42:42;101873.36;;;15.04;41.73
55517;BME280;41724;51.176;-0.708;2023-06-04T00:45:10;101870.72;;;14.67;41.96
55517;BME280;41724;51.176;-0.708;2023-06-04T00:47:37;101870.94;;;14.62;42.18
55517;BME280;41724;51.176;-0.708;2023-06-04T00:50:05;101873.17;;;14.49;42.75
55517;BME280;41724;51.176;-0.708;2023-06-04T00:52:33;101868.34;;;14.47;42.58
55517;BME280;41724;51.176;-0.708;2023-06-04T00:55:00;101874.02;;;14.41;42.73
55517;BME280;41724;51.176;-0.708;2023-06-04T00:57:27;101872.80;;;14.65;43.15
55517;BME280;41724;51.176;-0.708;2023-06-04T00:59:54;101870.22;;;14.59;44.31
55517;BME280;41724;51.176;-0.708;2023-06-04T01:02:23;101867.08;;;14.49;44.44
55517;BME280;41724;51.176;-0.708;2023-06-04T01:04:56;101867.59;;;14.47;45.01
55517;BME280;41724;51.176;-0.708;2023-06-04T01:07:27;101864.17;;;14.84;44.58
55517;BME280;41724;51.176;-0.708;2023-06-04T01:09:54;101863.57;;;14.66;44.39
55517;BME280;41724;51.176;-0.708;2023-06-04T01:12:23;101859.97;;;14.66;44.69
55517;BME280;41724;51.176;-0.708;2023-06-04T01:14:49;101857.84;;;14.72;44.41
55517;BME280;41724;51.176;-0.708;2023-06-04T01:17:20;101861.82;;;14.47;44.59
55517;BME280;41724;51.176;-0.708;2023-06-04T01:20:02;101859.58;;;14.60;44.15
55517;BME280;41724;51.176;-0.708;2023-06-04T01:22:39;101861.78;;;14.13;44.99
55517;BME280;41724;51.176;-0.708;2023-06-04T01:25:12;101859.35;;;14.35;44.70
55517;BME280;41724;51.176;-0.708;2023-06-04T01:27:40;101859.34;;;14.30;44.55
55517;BME280;41724;51.176;-0.708;2023-06-04T01:30:09;101855.83;;;14.11;44.19
55517;BME280;41724;51.176;-0.708;2023-06-04T01:32:37;101855.26;;;13.57;44.05
55517;BME280;41724;51.176;-0.708;2023-06-04T01:35:08;101851.17;;;13.84;43.74
55517;BME280;41724;51.176;-0.708;2023-06-04T01:37:36;101851.79;;;13.82;43.51
55517;BME280;41724;51.176;-0.708;2023-06-04T01:40:04;101851.17;;;13.06;44.60
55517;BME280;41724;51.176;-0.708;2023-06-04T01:42:31;101848.12;;;13.23;44.47
55517;BME280;41724;51.176;-0.708;2023-06-04T01:44:58;101847.98;;;13.30;45.38
55517;BME280;41724;51.176;-0.708;2023-06-04T01:47:25;101850.89;;;13.03;45.88
55517;BME280;41724;51.176;-0.708;2023-06-04T01:49:52;101851.95;;;13.34;45.42
55517;BME280;41724;51.176;-0.708;2023-06-04T01:52:20;101849.03;;;13.25;45.54
55517;BME280;41724;51.176;-0.708;2023-06-04T01:54:47;101852.21;;;13.38;45.79
55517;BME280;41724;51.176;-0.708;2023-06-04T01:57:14;101849.70;;;13.23;46.06
55517;BME280;41724;51.176;-0.708;2023-06-04T01:59:41;101850.74;;;12.94;45.80
55517;BME280;41724;51.176;-0.708;2023-06-04T02:02:08;101853.88;;;13.17;46.21
55517;BME280;41724;51.176;-0.708;2023-06-04T02:04:35;101854.89;;;13.22;46.00
55517;BME280;41724;51.176;-0.708;2023-06-04T02:07:02;101850.42;;;13.23;46.60
55517;BME280;41724;51.176;-0.708;2023-06-04T02:09:29;101852.01;;;13.09;46.71
55517;BME280;41724;51.176;-0.708;2023-06-04T02:11:56;101851.54;;;13.02;46.50
55517;BME280;41724;51.176;-0.708;2023-06-04T02:14:23;101854.05;;;13.06;46.54
55517;BME280;41724;51.176;-0.708;2023-06-04T02:16:51;101857.19;;;13.06;46.55
55517;BME280;41724;51.176;-0.708;2023-06-04T02:19:19;101855.72;;;12.41;48.19
55517;BME280;41724;51.176;-0.708;2023-06-04T02:21:46;101859.07;;;12.70;48.18
55517;BME280;41724;51.176;-0.708;2023-06-04T02:24:13;101859.58;;;12.46;48.08
55517;BME280;41724;51.176;-0.708;2023-06-04T02:26:40;101862.36;;;13.13;47.38
55517;BME280;41724;51.176;-0.708;2023-06-04T02:29:07;101859.14;;;13.23;46.92
55517;BME280;41724;51.176;-0.708;2023-06-04T02:31:34;101863.33;;;12.91;46.98
55517;BME280;41724;51.176;-0.708;2023-06-04T02:34:02;101863.55;;;13.02;46.60
55517;BME280;41724;51.176;-0.708;2023-06-04T02:36:29;101860.95;;;13.16;47.33
55517;BME280;41724;51.176;-0.708;2023-06-04T02:38:58;101859.08;;;12.67;48.06
55517;BME280;41724;51.176;-0.708;2023-06-04T02:41:25;101856.15;;;12.94;47.86
55517;BME280;41724;51.176;-0.708;2023-06-04T02:43:52;101855.28;;;13.01;47.26
55517;BME280;41724;51.176;-0.708;2023-06-04T02:46:19;101854.20;;;12.75;47.55
55517;BME280;41724;51.176;-0.708;2023-06-04T02:48:46;101854.43;;;12.92;46.90
55517;BME280;41724;51.176;-0.708;2023-06-04T02:51:14;101856.10;;;13.01;47.35
55517;BME280;41724;51.176;-0.708;2023-06-04T02:53:41;101860.20;;;12.77;47.63
55517;BME280;41724;51.176;-0.708;2023-06-04T02:56:08;101857.45;;;12.82;47.31
55517;BME280;41724;51.176;-0.708;2023-06-04T02:58:35;101858.82;;;13.11;47.27
55517;BME280;41724;51.176;-0.708;2023-06-04T03:01:03;101859.88;;;12.89;47.82
55517;BME280;41724;51.176;-0.708;2023-06-04T03:03:29;101859.75;;;12.83;48.01
55517;BME280;41724;51.176;-0.708;2023-06-04T03:05:56;101860.13;;;12.73;47.54
55517;BME280;41724;51.176;-0.708;2023-06-04T03:08:23;101863.59;;;12.81;47.30
55517;BME280;41724;51.176;-0.708;2023-06-04T03:10:50;101863.57;;;12.87;47.37
55517;BME280;41724;51.176;-0.708;2023-06-04T03:13:18;101863.81;;;12.75;47.97
55517;BME280;41724;51.176;-0.708;2023-06-04T03:15:45;101861.15;;;13.14;47.44
55517;BME280;41724;51.176;-0.708;2023-06-04T03:18:12;101865.39;;;13.08;48.37
55517;BME280;41724;51.176;-0.708;2023-06-04T03:20:39;101863.21;;;12.91;47.74
55517;BME280;41724;51.176;-0.708;2023-06-04T03:23:06;101861.40;;;12.45;48.23
55517;BME280;41724;51.176;-0.708;2023-06-04T03:25:33;101864.51;;;13.04;47.75
55517;BME280;41724;51.176;-0.708;2023-06-04T03:28:00;101864.22;;;13.04;47.92
55517;BME280;41724;51.176;-0.708;2023-06-04T03:30:28;101862.75;;;13.15;47.57
55517;BME280;41724;51.176;-0.708;2023-06-04T03:32:55;101864.49;;;12.99;48.15
55517;BME280;41724;51.176;-0.708;2023-06-04T03:35:22;101865.20;;;12.75;48.14
55517;BME280;41724;51.176;-0.708;2023-06-04T03:37:49;101863.79;;;12.91;48.73
55517;BME280;41724;51.176;-0.708;2023-06-04T03:40:16;101863.67;;;12.93;48.64
55517;BME280;41724;51.176;-0.708;2023-06-04T03:42:43;101862.21;;;13.00;48.87
55517;BME280;41724;51.176;-0.708;2023-06-04T03:45:10;101863.20;;;12.86;48.42
55517;BME280;41724;51.176;-0.708;2023-06-04T03:47:38;101868.16;;;13.07;48.66
55517;BME280;41724;51.176;-0.708;2023-06-04T03:50:06;101862.50;;;12.97;48.91
55517;BME280;41724;51.176;-0.708;2023-06-04T03:52:33;101865.25;;;13.08;48.75
55517;BME280;41724;51.176;-0.708;2023-06-04T03:55:01;101863.52;;;13.10;48.54
55517;BME280;41724;51.176;-0.708;2023-06-04T03:57:28;101865.64;;;12.85;48.46
55517;BME280;41724;51.176;-0.708;2023-06-04T03:59:56;101865.80;;;12.90;49.19
55517;BME280;41724;51.176;-0.708;2023-06-04T04:02:23;101866.45;;;12.96;48.72
55517;BME280;41724;51.176;-0.708;2023-06-04T04:04:50;101868.83;;;13.10;49.38
55517;BME280;41724;51.176;-0.708;2023-06-04T04:07:17;101865.55;;;13.20;49.16
55517;BME280;41724;51.176;-0.708;2023-06-04T04:09:44;101866.83;;;12.75;48.88
55517;BME280;41724;51.176;-0.708;2023-06-04T04:12:11;101868.72;;;12.78;49.07
55517;BME280;41724;51.176;-0.708;2023-06-04T04:14:38;101864.19;;;13.20;49.84
55517;BME280;41724;51.176;-0.708;2023-06-04T04:17:06;101865.80;;;12.82;49.23
55517;BME280;41724;51.176;-0.708;2023-06-04T04:19:33;101864.26;;;13.17;49.82
55517;BME280;41724;51.176;-0.708;2023-06-04T04:22:00;101864.05;;;13.05;49.93
55517;BME280;41724;51.176;-0.708;2023-06-04T04:24:28;101866.33;;;13.20;50.34
55517;BME280;41724;51.176;-0.708;2023-06-04T04:26:55;101865.61;;;13.12;50.28
55517;BME280;41724;51.176;-0.708;2023-06-04T04:29:22;101866.90;;;13.32;50.58
55517;BME280;41724;51.176;-0.708;2023-06-04T04:31:50;101867.70;;;13.33;50.59
55517;BME280;41724;51.176;-0.708;2023-06-04T04:34:17;101868.79;;;13.23;50.58
55517;BME280;41724;51.176;-0.708;2023-06-04T04:36:44;101870.12;;;13.33;50.85
55517;BME280;41724;51.176;-0.708;2023-06-04T04:39:11;101864.16;;;13.83;51.03
55517;BME280;41724;51.176;-0.708;2023-06-04T04:41:38;101862.40;;;13.37;51.44
55517;BME280;41724;51.176;-0.708;2023-06-04T04:44:05;101858.64;;;13.78;51.01
55517;BME280;41724;51.176;-0.708;2023-06-04T04:46:32;101857.89;;;13.78;51.47
55517;BME280;41724;51.176;-0.708;2023-06-04T04:48:59;101858.76;;;13.48;51.95
55517;BME280;41724;51.176;-0.708;2023-06-04T04:51:26;101862.39;;;13.47;51.41
55517;BME280;41724;51.176;-0.708;2023-06-04T04:53:55;101859.62;;;13.71;51.50
55517;BME280;41724;51.176;-0.708;2023-06-04T04:56:22;101858.81;;;13.41;51.44
55517;BME280;41724;51.176;-0.708;2023-06-04T04:58:50;101857.00;;;13.96;51.43
55517;BME280;41724;51.176;-0.708;2023-06-04T05:01:17;101855.31;;;13.79;51.63
55517;BME280;41724;51.176;-0.708;2023-06-04T05:03:44;101855.51;;;14.26;51.24
55517;BME280;41724;51.176;-0.708;2023-06-04T05:06:11;101855.93;;;13.98;51.54
55517;BME280;41724;51.176;-0.708;2023-06-04T05:08:38;101856.09;;;14.34;51.53
55517;BME280;41724;51.176;-0.708;2023-06-04T05:11:05;101858.95;;;13.94;51.96
55517;BME280;41724;51.176;-0.708;2023-06-04T05:13:32;101859.80;;;14.16;51.64
55517;BME280;41724;51.176;-0.708;2023-06-04T05:15:59;101861.03;;;14.22;51.58
55517;BME280;41724;51.176;-0.708;2023-06-04T05:18:27;101857.28;;;14.56;51.63
55517;BME280;41724;51.176;-0.708;2023-06-04T05:20:54;101856.63;;;14.68;51.50
55517;BME280;41724;51.176;-0.708;2023-06-04T05:23:20;101858.32;;;14.34;51.99
55517;BME280;41724;51.176;-0.708;2023-06-04T05:25:48;101861.46;;;14.41;52.02
55517;BME280;41724;51.176;-0.708;2023-06-04T05:28:15;101861.04;;;14.49;51.76
55517;BME280;41724;51.176;-0.708;2023-06-04T05:30:42;101855.86;;;14.56;51.71
55517;BME280;41724;51.176;-0.708;2023-06-04T05:33:08;101859.23;;;14.37;52.08
55517;BME280;41724;51.176;-0.708;2023-06-04T05:35:35;101860.40;;;14.91;51.96
55517;BME280;41724;51.176;-0.708;2023-06-04T05:38:02;101861.11;;;14.48;51.79
55517;BME280;41724;51.176;-0.708;2023-06-04T05:40:29;101861.80;;;14.65;51.52
55517;BME280;41724;51.176;-0.708;2023-06-04T05:42:56;101863.49;;;14.84;51.29
55517;BME280;41724;51.176;-0.708;2023-06-04T05:45:24;101857.71;;;15.23;50.95
55517;BME280;41724;51.176;-0.708;2023-06-04T05:47:55;101857.88;;;14.54;52.44
55517;BME280;41724;51.176;-0.708;2023-06-04T05:50:22;101854.86;;;14.72;52.19
55517;BME280;41724;51.176;-0.708;2023-06-04T05:52:49;101851.21;;;14.89;51.67
55517;BME280;41724;51.176;-0.708;2023-06-04T05:55:17;101852.78;;;14.79;51.58
55517;BME280;41724;51.176;-0.708;2023-06-04T05:57:44;101856.39;;;14.90;52.27
55517;BME280;41724;51.176;-0.708;2023-06-04T06:00:12;101860.53;;;14.79;52.13
55517;BME280;41724;51.176;-0.708;2023-06-04T06:02:39;101855.36;;;15.20;51.52
55517;BME280;41724;51.176;-0.708;2023-06-04T06:05:06;101854.47;;;14.81;51.70
55517;BME280;41724;51.176;-0.708;2023-06-04T06:07:34;101852.52;;;15.16;51.09
55517;BME280;41724;51.176;-0.708;2023-06-04T06:10:02;101854.24;;;15.47;51.47
55517;BME280;41724;51.176;-0.708;2023-06-04T06:12:31;101859.67;;;15.51;50.75
55517;BME280;41724;51.176;-0.708;2023-06-04T06:14:58;101857.92;;;15.42;50.65
55517;BME280;41724;51.176;-0.708;2023-06-04T06:17:25;101859.14;;;15.50;50.08
55517;BME280;41724;51.176;-0.708;2023-06-04T06:19:52;101860.50;;;15.43;50.49
55517;BME280;41724;51.176;-0.708;2023-06-04T06:22:19;101861.09;;;15.57;49.53
55517;BME280;41724;51.176;-0.708;2023-06-04T06:24:46;101861.09;;;15.65;49.48
55517;BME280;41724;51.176;-0.708;2023-06-04T06:27:13;101859.10;;;15.63;49.63
55517;BME280;41724;51.176;-0.708;2023-06-04T06:29:41;101859.48;;;15.75;49.97
55517;BME280;41724;51.176;-0.708;2023-06-04T06:32:08;101860.44;;;15.68;50.46
55517;BME280;41724;51.176;-0.708;2023-06-04T06:34:35;101856.65;;;15.91;49.91
55517;BME280;41724;51.176;-0.708;2023-06-04T06:37:02;101858.83;;;16.09;49.70
55517;BME280;41724;51.176;-0.708;2023-06-04T06:39:29;101860.46;;;14.86;50.64
55517;BME280;41724;51.176;-0.708;2023-06-04T06:41:56;101862.12;;;15.38;50.61
55517;BME280;41724;51.176;-0.708;2023-06-04T06:44:23;101860.78;;;15.39;50.08
55517;BME280;41724;51.176;-0.708;2023-06-04T06:46:55;101861.32;;;15.26;50.73
55517;BME280;41724;51.176;-0.708;2023-06-04T06:49:22;101862.27;;;15.57;50.01
55517;BME280;41724;51.176;-0.708;2023-06-04T06:51:49;101860.61;;;15.82;50.22
55517;BME280;41724;51.176;-0.708;2023-06-04T06:54:16;101861.33;;;15.65;49.28
55517;BME280;41724;51.176;-0.708;2023-06-04T06:56:43;101861.25;;;15.22;50.54
55517;BME280;41724;51.176;-0.708;2023-06-04T06:59:10;101862.73;;;15.37;51.33
55517;BME280;41724;51.176;-0.708;2023-06-04T07:01:37;101863.08;;;15.29;50.75
55517;BME280;41724;51.176;-0.708;2023-06-04T07:04:04;101862.92;;;15.56;50.55
55517;BME280;41724;51.176;-0.708;2023-06-04T07:06:31;101862.19;;;15.85;49.99
55517;BME280;41724;51.176;-0.708;2023-06-04T07:09:01;101859.25;;;15.52;50.26
55517;BME280;41724;51.176;-0.708;2023-06-04T07:11:28;101862.48;;;16.28;49.53
55517;BME280;41724;51.176;-0.708;2023-06-04T07:13:55;101860.88;;;16.34;49.15
55517;BME280;41724;51.176;-0.708;2023-06-04T07:16:22;101862.31;;;16.32;49.32
55517;BME280;41724;51.176;-0.708;2023-06-04T07:18:49;101859.27;;;16.29;49.17
55517;BME280;41724;51.176;-0.708;2023-06-04T07:21:16;101861.42;;;16.58;47.33
55517;BME280;41724;51.176;-0.708;2023-06-04T07:23:43;101867.13;;;15.87;48.90
55517;BME280;41724;51.176;-0.708;2023-06-04T07:26:10;101865.81;;;16.08;48.64
55517;BME280;41724;51.176;-0.708;2023-06-04T07:28:37;101860.18;;;16.49;46.67
55517;BME280;41724;51.176;-0.708;2023-06-04T07:31:04;101860.77;;;16.73;46.50
55517;BME280;41724;51.176;-0.708;2023-06-04T07:33:32;101862.61;;;16.55;46.63
55517;BME280;41724;51.176;-0.708;2023-06-04T07:35:59;101863.16;;;16.45;46.95
55517;BME280;41724;51.176;-0.708;2023-06-04T07:38:26;101868.72;;;15.58;48.05
55517;BME280;41724;51.176;-0.708;2023-06-04T07:40:53;101864.66;;;16.59;47.63
55517;BME280;41724;51.176;-0.708;2023-06-04T07:43:20;101866.98;;;16.75;47.66
55517;BME280;41724;51.176;-0.708;2023-06-04T07:45:47;101866.01;;;17.04;47.33
55517;BME280;41724;51.176;-0.708;2023-06-04T07:48:14;101867.51;;;17.14;45.42
55517;BME280;41724;51.176;-0.708;2023-06-04T07:50:41;101864.56;;;16.58;45.81
55517;BME280;41724;51.176;-0.708;2023-06-04T07:53:08;101864.12;;;16.49;45.91
55517;BME280;41724;51.176;-0.708;2023-06-04T07:55:35;101857.97;;;16.79;46.52
55517;BME280;41724;51.176;-0.708;2023-06-04T07:58:02;101862.06;;;17.09;44.43
55517;BME280;41724;51.176;-0.708;2023-06-04T08:00:29;101864.32;;;17.05;44.37
55517;BME280;41724;51.176;-0.708;2023-06-04T08:02:55;101859.09;;;16.53;44.93
55517;BME280;41724;51.176;-0.708;2023-06-04T08:05:22;101862.69;;;16.69;44.84
55517;BME280;41724;51.176;-0.708;2023-06-04T08:07:49;101861.67;;;17.28;44.21
55517;BME280;41724;51.176;-0.708;2023-06-04T08:10:16;101862.85;;;17.17;43.11
55517;BME280;41724;51.176;-0.708;2023-06-04T08:12:43;101866.31;;;17.16;43.60
55517;BME280;41724;51.176;-0.708;2023-06-04T08:15:10;101864.21;;;17.76;43.41
55517;BME280;41724;51.176;-0.708;2023-06-04T08:17:37;101870.21;;;17.81;42.50
55517;BME280;41724;51.176;-0.708;2023-06-04T08:20:05;101868.59;;;18.01;42.97
55517;BME280;41724;51.176;-0.708;2023-06-04T08:22:33;101871.61;;;18.25;41.86
55517;BME280;41724;51.176;-0.708;2023-06-04T08:25:00;101869.50;;;18.53;41.20
55517;BME280;41724;51.176;-0.708;2023-06-04T08:27:27;101874.02;;;18.58;41.82
55517;BME280;41724;51.176;-0.708;2023-06-04T08:29:54;101879.81;;;18.54;41.48
55517;BME280;41724;51.176;-0.708;2023-06-04T08:32:21;101885.25;;;18.15;40.43
55517;BME280;41724;51.176;-0.708;2023-06-04T08:34:48;101878.72;;;17.12;42.39
55517;BME280;41724;51.176;-0.708;2023-06-04T08:37:16;101873.29;;;18.05;42.36
55517;BME280;41724;51.176;-0.708;2023-06-04T08:39:43;101874.48;;;18.45;40.76
55517;BME280;41724;51.176;-0.708;2023-06-04T08:42:15;101870.21;;;17.94;41.53
55517;BME280;41724;51.176;-0.708;2023-06-04T08:44:50;101876.16;;;18.21;42.03
55517;BME280;41724;51.176;-0.708;2023-06-04T08:47:19;101877.29;;;17.90;41.85
55517;BME280;41724;51.176;-0.708;2023-06-04T08:49:49;101877.53;;;18.61;42.83
55517;BME280;41724;51.176;-0.708;2023-06-04T08:52:17;101877.10;;;18.53;40.07
55517;BME280;41724;51.176;-0.708;2023-06-04T08:54:44;101877.78;;;18.87;40.71
55517;BME280;41724;51.176;-0.708;2023-06-04T08:57:11;101884.88;;;18.37;40.48
55517;BME280;41724;51.176;-0.708;2023-06-04T08:59:39;101883.74;;;18.79;40.71
55517;BME280;41724;51.176;-0.708;2023-06-04T09:02:07;101879.65;;;18.83;39.86
55517;BME280;41724;51.176;-0.708;2023-06-04T09:04:34;101879.31;;;19.32;39.25
55517;BME280;41724;51.176;-0.708;2023-06-04T09:07:03;101878.91;;;19.34;40.11
55517;BME280;41724;51.176;-0.708;2023-06-04T09:09:31;101873.88;;;19.24;38.86
55517;BME280;41724;51.176;-0.708;2023-06-04T09:12:07;101874.60;;;19.63;39.28
55517;BME280;41724;51.176;-0.708;2023-06-04T09:14:36;101877.88;;;19.56;39.31
55517;BME280;41724;51.176;-0.708;2023-06-04T09:17:03;101878.01;;;19.65;39.20
55517;BME280;41724;51.176;-0.708;2023-06-04T09:19:29;101882.52;;;19.19;37.52
55517;BME280;41724;51.176;-0.708;2023-06-04T09:21:58;101880.21;;;19.61;38.07
55517;BME280;41724;51.176;-0.708;2023-06-04T09:24:37;101879.37;;;19.21;37.79
55517;BME280;41724;51.176;-0.708;2023-06-04T09:27:09;101876.06;;;19.57;38.72
55517;BME280;41724;51.176;-0.708;2023-06-04T09:29:37;101881.73;;;19.25;39.04
55517;BME280;41724;51.176;-0.708;2023-06-04T09:32:04;101883.03;;;19.51;38.95
55517;BME280;41724;51.176;-0.708;2023-06-04T09:34:31;101876.52;;;19.63;38.98
55517;BME280;41724;51.176;-0.708;2023-06-04T09:36:58;101878.99;;;19.97;38.51
55517;BME280;41724;51.176;-0.708;2023-06-04T09:39:26;101878.17;;;20.10;37.76
55517;BME280;41724;51.176;-0.708;2023-06-04T09:42:01;101878.69;;;20.27;37.18
55517;BME280;41724;51.176;-0.708;2023-06-04T09:44:29;101877.64;;;20.04;38.17
55517;BME280;41724;51.176;-0.708;2023-06-04T09:46:57;101878.10;;;20.13;38.78
55517;BME280;41724;51.176;-0.708;2023-06-04T09:49:24;101879.10;;;20.31;36.92
55517;BME280;41724;51.176;-0.708;2023-06-04T09:51:51;101880.70;;;19.93;37.13
55517;BME280;41724;51.176;-0.708;2023-06-04T09:54:18;101877.69;;;19.86;36.99
55517;BME280;41724;51.176;-0.708;2023-06-04T09:56:45;101884.25;;;19.72;37.38
55517;BME280;41724;51.176;-0.708;2023-06-04T09:59:13;101885.47;;;20.05;38.72
55517;BME280;41724;51.176;-0.708;2023-06-04T10:01:40;101890.08;;;20.85;37.40
55517;BME280;41724;51.176;-0.708;2023-06-04T10:04:08;101885.61;;;20.09;38.00
55517;BME280;41724;51.176;-0.708;2023-06-04T10:06:36;101889.31;;;20.14;37.81
55517;BME280;41724;51.176;-0.708;2023-06-04T10:09:05;101886.87;;;19.70;37.86
55517;BME280;41724;51.176;-0.708;2023-06-04T10:11:35;101887.09;;;20.86;38.21
55517;BME280;41724;51.176;-0.708;2023-06-04T10:14:05;101890.25;;;20.55;38.69
55517;BME280;41724;51.176;-0.708;2023-06-04T10:16:38;101888.54;;;20.35;38.27
55517;BME280;41724;51.176;-0.708;2023-06-04T10:19:07;101885.39;;;20.81;36.77
55517;BME280;41724;51.176;-0.708;2023-06-04T10:21:35;101883.49;;;21.16;36.55
55517;BME280;41724;51.176;-0.708;2023-06-04T10:24:03;101887.81;;;20.59;37.17
55517;BME280;41724;51.176;-0.708;2023-06-04T10:26:32;101886.30;;;20.26;37.20
55517;BME280;41724;51.176;-0.708;2023-06-04T10:29:01;101878.63;;;20.60;36.86
55517;BME280;41724;51.176;-0.708;2023-06-04T10:31:28;101879.92;;;21.22;38.80
55517;BME280;41724;51.176;-0.708;2023-06-04T10:33:56;101885.34;;;21.23;40.25
55517;BME280;41724;51.176;-0.708;2023-06-04T10:36:24;101886.16;;;20.95;38.42
55517;BME280;41724;51.176;-0.708;2023-06-04T10:38:52;101884.24;;;21.14;41.60
55517;BME280;41724;51.176;-0.708;2023-06-04T10:41:20;101888.83;;;21.05;38.12
55517;BME280;41724;51.176;-0.708;2023-06-04T10:43:49;101889.60;;;21.77;38.88
55517;BME280;41724;51.176;-0.708;2023-06-04T10:46:18;101885.17;;;22.10;36.73
55517;BME280;41724;51.176;-0.708;2023-06-04T10:48:47;101888.36;;;21.72;34.62
55517;BME280;41724;51.176;-0.708;2023-06-04T10:51:15;101884.57;;;21.72;38.36
55517;BME280;41724;51.176;-0.708;2023-06-04T10:53:43;101880.41;;;22.19;35.65
55517;BME280;41724;51.176;-0.708;2023-06-04T10:56:10;101882.87;;;22.13;36.43
55517;BME280;41724;51.176;-0.708;2023-06-04T10:58:37;101879.89;;;22.33;36.06
55517;BME280;41724;51.176;-0.708;2023-06-04T11:01:04;101888.55;;;22.66;33.42
55517;BME280;41724;51.176;-0.708;2023-06-04T11:03:38;101891.55;;;21.60;34.38
55517;BME280;41724;51.176;-0.708;2023-06-04T11:06:15;101892.14;;;21.61;35.84
55517;BME280;41724;51.176;-0.708;2023-06-04T11:08:42;101892.09;;;21.61;34.54
55517;BME280;41724;51.176;-0.708;2023-06-04T11:11:11;101889.82;;;22.08;34.68
55517;BME280;41724;51.176;-0.708;2023-06-04T11:13:38;101886.29;;;22.65;34.54
55517;BME280;41724;51.176;-0.708;2023-06-04T11:16:14;101889.39;;;23.10;33.00
55517;BME280;41724;51.176;-0.708;2023-06-04T11:18:41;101887.89;;;23.15;32.68
55517;BME280;41724;51.176;-0.708;2023-06-04T11:21:08;101888.82;;;23.75;33.14
55517;BME280;41724;51.176;-0.708;2023-06-04T11:23:36;101881.77;;;23.72;32.24
55517;BME280;41724;51.176;-0.708;2023-06-04T11:26:03;101881.35;;;24.56;31.76
55517;BME280;41724;51.176;-0.708;2023-06-04T11:28:30;101885.80;;;23.51;33.98
55517;BME280;41724;51.176;-0.708;2023-06-04T11:30:57;101881.03;;;23.72;31.91
55517;BME280;41724;51.176;-0.708;2023-06-04T11:33:24;101878.20;;;24.25;31.56
55517;BME280;41724;51.176;-0.708;2023-06-04T11:35:51;101877.40;;;24.67;31.10
55517;BME280;41724;51.176;-0.708;2023-06-04T11:38:18;101881.27;;;24.37;29.21
55517;BME280;41724;51.176;-0.708;2023-06-04T11:40:55;101879.48;;;24.55;29.41
55517;BME280;41724;51.176;-0.708;2023-06-04T11:43:23;101873.47;;;24.22;30.37
55517;BME280;41724;51.176;-0.708;2023-06-04T11:45:51;101868.88;;;24.70;30.10
55517;BME280;41724;51.176;-0.708;2023-06-04T11:48:17;101864.73;;;23.73;29.86
55517;BME280;41724;51.176;-0.708;2023-06-04T11:50:44;101859.76;;;24.80;29.60
55517;BME280;41724;51.176;-0.708;2023-06-04T11:53:13;101852.79;;;24.37;29.17
55517;BME280;41724;51.176;-0.708;2023-06-04T11:55:40;101854.73;;;25.48;31.04
55517;BME280;41724;51.176;-0.708;2023-06-04T11:58:07;101852.91;;;25.43;28.73
55517;BME280;41724;51.176;-0.708;2023-06-04T12:00:35;101851.84;;;25.79;29.48
55517;BME280;41724;51.176;-0.708;2023-06-04T12:03:03;101844.57;;;25.06;30.43
55517;BME280;41724;51.176;-0.708;2023-06-04T12:05:30;101846.75;;;24.50;29.83
55517;BME280;41724;51.176;-0.708;2023-06-04T12:08:08;101842.18;;;25.72;29.32
55517;BME280;41724;51.176;-0.708;2023-06-04T12:10:37;101834.55;;;26.66;28.30
55517;BME280;41724;51.176;-0.708;2023-06-04T12:13:04;101840.36;;;25.77;26.59
55517;BME280;41724;51.176;-0.708;2023-06-04T12:15:32;101840.47;;;26.50;27.80
55517;BME280;41724;51.176;-0.708;2023-06-04T12:17:59;101837.53;;;25.69;28.41
55517;BME280;41724;51.176;-0.708;2023-06-04T12:20:35;101840.37;;;24.59;29.11
55517;BME280;41724;51.176;-0.708;2023-06-04T12:23:02;101831.78;;;24.97;30.09
55517;BME280;41724;51.176;-0.708;2023-06-04T12:25:30;101830.34;;;25.36;29.12
55517;BME280;41724;51.176;-0.708;2023-06-04T12:27:57;101831.14;;;26.06;27.21
55517;BME280;41724;51.176;-0.708;2023-06-04T12:30:35;101832.88;;;27.65;28.28
55517;BME280;41724;51.176;-0.708;2023-06-04T12:33:02;101828.52;;;26.65;26.15
55517;BME280;41724;51.176;-0.708;2023-06-04T12:35:29;101823.33;;;26.92;27.31
55517;BME280;41724;51.176;-0.708;2023-06-04T12:37:56;101820.45;;;28.38;26.09
55517;BME280;41724;51.176;-0.708;2023-06-04T12:40:23;101826.61;;;27.36;25.33
55517;BME280;41724;51.176;-0.708;2023-06-04T12:42:50;101822.16;;;28.53;24.66